createdAt,value
2023-04-22T00:00:24.696Z,87.82
2023-04-22T00:03:05.342Z,88.45
2023-04-22T00:05:52.784Z,87.26
2023-04-22T00:08:33.057Z,86.60
2023-04-22T00:11:19.732Z,86.97
2023-04-22T00:14:06.576Z,84.97
2023-04-22T00:16:46.963Z,85.33
2023-04-22T00:19:34.910Z,85.03
2023-04-22T00:22:14.771Z,84.21
2023-04-22T00:25:01.591Z,84.63
2023-04-22T00:27:48.625Z,86.20
2023-04-22T00:30:35.658Z,86.00
2023-04-22T00:33:15.708Z,88.85
2023-04-22T00:36:02.536Z,86.58
2023-04-22T00:38:42.658Z,86.23
2023-04-22T00:41:29.539Z,87.75
2023-04-22T00:44:19.644Z,87.69
2023-04-22T00:47:06.705Z,87.34
2023-04-22T00:49:53.645Z,88.11
2023-04-22T00:52:40.548Z,88.59
2023-04-22T00:55:20.794Z,88.25
2023-04-22T00:58:09.590Z,89.69
2023-04-22T01:00:49.762Z,88.13
2023-04-22T01:03:37.870Z,87.04
2023-04-22T01:06:24.582Z,87.87
2023-04-22T01:09:04.982Z,87.91
2023-04-22T01:11:51.585Z,86.76
2023-04-22T01:14:32.803Z,87.50
2023-04-22T01:17:20.557Z,87.86
2023-04-22T01:20:01.707Z,87.12
2023-04-22T01:22:53.540Z,87.84
2023-04-22T01:25:34.181Z,87.58
2023-04-22T01:28:20.514Z,86.74
2023-04-22T01:31:07.594Z,88.71
2023-04-22T01:33:48.485Z,87.20
2023-04-22T01:36:35.513Z,86.67
2023-04-22T01:39:15.657Z,87.49
2023-04-22T01:42:03.518Z,86.37
2023-04-22T01:44:43.564Z,86.28
2023-04-22T01:47:30.502Z,86.40
2023-04-22T01:50:17.499Z,83.97
2023-04-22T01:52:57.876Z,83.38
2023-04-22T01:55:44.517Z,83.59
2023-04-22T01:58:31.524Z,80.64
2023-04-22T02:01:11.665Z,81.33
2023-04-22T02:03:58.477Z,82.24
2023-04-22T02:06:38.588Z,80.86
2023-04-22T02:09:25.513Z,81.76
2023-04-22T02:12:05.636Z,81.59
2023-04-22T02:14:53.452Z,80.90
2023-04-22T02:17:40.459Z,82.81
2023-04-22T02:20:27.409Z,82.83
2023-04-22T02:23:14.798Z,82.21
2023-04-22T02:26:02.518Z,84.21
2023-04-22T02:28:42.959Z,83.73
2023-04-22T02:31:29.457Z,83.51
2023-04-22T02:34:09.501Z,85.48
2023-04-22T02:36:56.477Z,85.08
2023-04-22T02:39:36.739Z,84.76
2023-04-22T02:42:23.444Z,85.77
2023-04-22T02:45:03.534Z,86.28
2023-04-22T02:47:51.690Z,84.89
2023-04-22T02:50:38.391Z,86.24
2023-04-22T02:53:18.937Z,88.04
2023-04-22T02:56:05.402Z,87.53
2023-04-22T02:58:48.088Z,89.01
2023-04-22T03:01:35.404Z,89.33
2023-04-22T03:04:22.134Z,90.41
2023-04-22T03:07:09.431Z,91.29
2023-04-22T03:09:56.472Z,90.94
2023-04-22T03:12:36.362Z,90.76
2023-04-22T03:15:19.604Z,90.62
2023-04-22T03:18:08.519Z,91.35
2023-04-22T03:20:56.490Z,90.40
2023-04-22T03:23:36.411Z,90.17
2023-04-22T03:26:24.533Z,91.90
2023-04-22T03:29:05.441Z,93.63
2023-04-22T03:31:45.866Z,94.13
2023-04-22T03:34:34.600Z,95.15
2023-04-22T03:37:23.498Z,95.89
2023-04-22T03:40:03.327Z,96.72
2023-04-22T03:42:58.318Z,97.71
2023-04-22T03:45:45.393Z,97.42
2023-04-22T03:48:41.392Z,99.31
2023-04-22T03:51:38.316Z,100.00
2023-04-22T03:54:30.322Z,99.06
2023-04-22T03:57:11.744Z,99.75
2023-04-22T03:59:58.302Z,98.51
2023-04-22T04:02:47.806Z,96.40
2023-04-22T04:05:38.446Z,94.35
2023-04-22T04:08:18.710Z,92.55
2023-04-22T04:11:05.328Z,91.22
2023-04-22T04:13:45.779Z,88.72
2023-04-22T04:16:40.256Z,86.44
2023-04-22T04:19:34.369Z,85.44
2023-04-22T04:22:21.290Z,84.62
2023-04-22T04:25:13.281Z,83.06
2023-04-22T04:27:54.388Z,82.19
2023-04-22T04:30:41.227Z,79.05
2023-04-22T04:33:28.265Z,78.10
2023-04-22T04:36:10.725Z,78.64
2023-04-22T04:38:57.275Z,76.96
2023-04-22T04:41:45.231Z,73.05
2023-04-22T04:44:33.248Z,72.80
2023-04-22T04:47:15.119Z,72.10
2023-04-22T04:50:05.190Z,70.92
2023-04-22T04:52:53.223Z,69.16
2023-04-22T04:55:40.456Z,64.83
2023-04-22T04:58:34.244Z,64.02
2023-04-22T05:01:33.317Z,62.28
2023-04-22T05:04:15.805Z,61.18
2023-04-22T05:07:03.215Z,61.61
2023-04-22T05:09:45.649Z,61.00
2023-04-22T05:12:32.177Z,59.26
2023-04-22T05:15:15.382Z,62.50
2023-04-22T05:18:02.319Z,65.42
2023-04-22T05:20:42.641Z,63.32
2023-04-22T05:23:32.246Z,61.19
2023-04-22T05:26:13.721Z,58.74
2023-04-22T05:29:02.186Z,60.36
2023-04-22T05:31:49.257Z,61.92
2023-04-22T05:34:29.360Z,63.97
2023-04-22T05:37:17.226Z,67.65
2023-04-22T05:39:58.264Z,68.66
2023-04-22T05:42:45.207Z,68.72
2023-04-22T05:45:25.239Z,66.24
2023-04-22T05:48:12.245Z,62.85
2023-04-22T05:51:03.308Z,57.93
2023-04-22T05:53:50.193Z,57.59
2023-04-22T05:56:30.244Z,54.69
2023-04-22T05:59:18.834Z,52.68
2023-04-22T06:01:59.341Z,45.39
2023-04-22T06:04:46.515Z,50.46
2023-04-22T06:07:35.140Z,47.87
2023-04-22T06:10:22.284Z,45.76
2023-04-22T06:13:03.203Z,44.52
2023-04-22T06:15:43.593Z,44.34
2023-04-22T06:18:30.192Z,41.02
2023-04-22T06:21:10.747Z,42.91
2023-04-22T06:23:57.130Z,43.85
2023-04-22T06:26:37.961Z,42.75
2023-04-22T06:29:25.187Z,43.86
2023-04-22T06:32:12.130Z,45.19
2023-04-22T06:34:59.255Z,43.59
2023-04-22T06:37:39.921Z,42.58
2023-04-22T06:40:28.112Z,43.37
2023-04-22T06:43:28.205Z,38.30
2023-04-22T06:46:11.187Z,38.67
2023-04-22T06:49:26.562Z,38.35
2023-04-22T06:52:13.097Z,42.91
2023-04-22T06:55:00.152Z,41.74
2023-04-22T06:57:40.222Z,42.36
2023-04-22T07:00:27.127Z,39.72
2023-04-22T07:03:14.154Z,39.92
2023-04-22T07:06:12.119Z,39.42
2023-04-22T07:08:52.219Z,41.01
2023-04-22T07:11:39.127Z,41.99
2023-04-22T07:14:24.193Z,42.77
2023-04-22T07:17:11.113Z,42.13
2023-04-22T07:19:51.317Z,43.33
2023-04-22T07:22:38.071Z,43.47
2023-04-22T07:25:18.123Z,44.13
2023-04-22T07:40:13.135Z,47.21
2023-04-22T07:42:53.494Z,47.54
2023-04-22T07:45:40.257Z,46.26
2023-04-22T07:48:20.659Z,44.60
2023-04-22T07:51:07.209Z,45.68
2023-04-22T07:53:54.154Z,41.58
2023-04-22T07:56:41.264Z,35.28
2023-04-22T07:59:21.773Z,33.99
2023-04-22T08:02:08.226Z,29.06
2023-04-22T08:04:48.664Z,32.46
2023-04-22T08:07:35.098Z,29.65
2023-04-22T08:10:22.092Z,29.21
2023-04-22T08:13:09.071Z,27.87
2023-04-22T08:15:49.502Z,30.09
2023-04-22T08:18:36.023Z,29.69
2023-04-22T08:21:16.463Z,27.64
2023-04-22T08:24:03.108Z,28.22
2023-04-22T08:26:43.458Z,26.98
2023-04-22T08:29:30.058Z,24.43
2023-04-22T08:32:19.647Z,24.33
2023-04-22T08:35:04.327Z,25.97
2023-04-22T08:37:59.114Z,24.25
2023-04-22T08:40:49.121Z,27.12
2023-04-22T08:43:36.146Z,27.59
2023-04-22T08:46:20.197Z,26.53
2023-04-22T08:49:10.014Z,27.56
2023-04-22T08:51:50.832Z,27.72
2023-04-22T08:54:39.044Z,24.89
2023-04-22T08:57:20.413Z,23.34
2023-04-22T09:00:07.015Z,21.13
2023-04-22T09:02:48.425Z,24.26
2023-04-22T09:05:37.082Z,27.48
2023-04-22T09:08:17.804Z,31.76
2023-04-22T09:11:05.007Z,28.90
2023-04-22T09:13:45.618Z,22.77
2023-04-22T09:16:32.152Z,23.43
2023-04-22T09:19:13.274Z,20.57
2023-04-22T09:22:00.058Z,21.22
2023-04-22T09:24:49.736Z,22.12
2023-04-22T09:27:41.031Z,20.91
2023-04-22T09:30:37.772Z,20.56
2023-04-22T09:33:20.040Z,23.04
2023-04-22T09:36:09.496Z,22.59
2023-04-22T09:39:06.082Z,21.57
2023-04-22T09:41:54.617Z,17.59
2023-04-22T09:44:33.960Z,17.70
2023-04-22T09:47:21.034Z,19.63
2023-04-22T09:50:04.321Z,18.49
2023-04-22T09:52:51.005Z,22.77
2023-04-22T09:55:34.763Z,22.91
2023-04-22T09:58:28.101Z,20.04
2023-04-22T10:01:08.507Z,16.06
2023-04-22T10:03:55.041Z,16.28
2023-04-22T10:06:35.950Z,18.84
2023-04-22T10:09:22.979Z,24.12
2023-04-22T10:12:10.982Z,26.61
2023-04-22T10:14:57.922Z,30.09
2023-04-22T10:17:39.708Z,28.21
2023-04-22T10:20:31.931Z,21.25
2023-04-22T10:23:15.612Z,20.78
2023-04-22T10:26:03.969Z,22.64
2023-04-22T10:28:44.631Z,27.10
2023-04-22T10:31:35.108Z,24.30
2023-04-22T10:34:22.107Z,22.26
2023-04-22T10:37:19.038Z,21.79
2023-04-22T10:40:23.011Z,21.80
2023-04-22T10:43:10.930Z,23.07
2023-04-22T10:45:51.364Z,26.18
2023-04-22T10:48:56.870Z,29.20
2023-04-22T10:51:53.925Z,27.52
2023-04-22T10:54:37.171Z,26.81
2023-04-22T10:57:33.917Z,28.31
2023-04-22T11:00:23.906Z,26.67
2023-04-22T11:03:13.311Z,25.31
2023-04-22T11:06:20.880Z,23.52
2023-04-22T11:09:17.425Z,28.96
2023-04-22T11:12:50.035Z,31.68
2023-04-22T11:15:30.084Z,30.61
2023-04-22T11:18:19.900Z,30.81
2023-04-22T11:21:07.873Z,33.54
2023-04-22T11:23:53.062Z,35.25
2023-04-22T11:26:47.842Z,35.84
2023-04-22T11:29:28.260Z,34.75
2023-04-22T11:32:16.873Z,35.98
2023-04-22T11:34:58.083Z,35.52
2023-04-22T11:37:44.986Z,33.45
2023-04-22T11:40:47.644Z,35.70
2023-04-22T11:43:28.255Z,42.17
2023-04-22T11:46:14.936Z,45.63
2023-04-22T11:49:01.853Z,48.25
2023-04-22T11:51:48.865Z,47.96
2023-04-22T11:54:34.261Z,48.71
2023-04-22T11:57:23.812Z,50.43
2023-04-22T12:00:05.353Z,50.64
2023-04-22T12:02:51.894Z,49.41
2023-04-22T12:05:43.797Z,49.19
2023-04-22T12:08:26.915Z,47.83
2023-04-22T12:11:16.895Z,42.74
2023-04-22T12:13:59.914Z,41.80
2023-04-22T12:16:47.996Z,42.37
2023-04-22T12:19:40.139Z,42.36
2023-04-22T12:22:28.159Z,42.33
2023-04-22T12:25:14.762Z,44.35
2023-04-22T12:27:56.191Z,42.72
2023-04-22T12:30:42.826Z,43.55
2023-04-22T12:33:23.210Z,55.91
2023-04-22T12:36:09.883Z,61.39
2023-04-22T12:39:03.821Z,66.01
2023-04-22T12:41:44.303Z,71.72
2023-04-22T12:44:30.789Z,75.02
2023-04-22T12:47:11.244Z,79.83
2023-04-22T12:49:57.863Z,82.30
2023-04-22T12:52:38.359Z,82.68
2023-04-22T12:55:24.988Z,81.72
2023-04-22T12:58:05.663Z,81.67
2023-04-22T13:00:52.952Z,81.79
2023-04-22T13:03:39.948Z,82.25
2023-04-22T13:06:26.732Z,81.61
2023-04-22T13:09:13.853Z,80.58
2023-04-22T13:11:56.101Z,80.51
2023-04-22T13:14:36.383Z,83.34
2023-04-22T13:17:22.753Z,82.76
2023-04-22T13:20:06.467Z,83.44
2023-04-22T13:22:54.773Z,82.77
2023-04-22T13:25:35.170Z,83.70
2023-04-22T13:28:21.820Z,83.40
2023-04-22T13:31:02.503Z,86.29
2023-04-22T13:33:50.772Z,86.30
2023-04-22T13:36:31.347Z,87.46
2023-04-22T13:39:18.710Z,88.53
2023-04-22T13:42:05.745Z,89.75
2023-04-22T13:44:45.962Z,90.01
2023-04-22T13:47:32.710Z,90.11
2023-04-22T13:50:20.712Z,89.55
2023-04-22T13:53:01.343Z,90.32
2023-04-22T13:55:47.708Z,89.59
2023-04-22T13:58:28.018Z,89.22
2023-04-22T14:01:15.058Z,89.36
2023-04-22T14:03:55.229Z,88.82
2023-04-22T14:06:41.689Z,88.53
2023-04-22T14:09:28.674Z,89.63
2023-04-22T14:12:15.624Z,89.30
2023-04-22T14:15:02.710Z,88.05
2023-04-22T14:17:42.897Z,87.79
2023-04-22T14:20:31.689Z,86.36
2023-04-22T14:23:11.879Z,85.84
2023-04-22T14:25:58.674Z,85.28
2023-04-22T14:28:45.650Z,85.51
2023-04-22T14:31:32.669Z,86.85
2023-04-22T14:34:12.742Z,89.01
2023-04-22T14:36:59.639Z,89.99
2023-04-22T14:39:39.952Z,91.86
2023-04-22T14:42:26.625Z,92.49
2023-04-22T14:45:06.739Z,91.35
2023-04-22T14:47:53.959Z,89.55
2023-04-22T14:50:40.643Z,89.32
2023-04-22T14:53:21.099Z,89.06
2023-04-22T14:56:07.616Z,88.12
2023-04-22T14:58:54.604Z,88.84
2023-04-22T15:01:42.599Z,89.80
2023-04-22T15:04:30.663Z,90.34
2023-04-22T15:07:17.602Z,91.54
2023-04-22T15:10:04.804Z,91.09
2023-04-22T15:12:44.636Z,91.12
2023-04-22T15:15:25.013Z,90.96
2023-04-22T15:18:12.616Z,91.06
2023-04-22T15:20:52.961Z,92.45
2023-04-22T15:23:39.580Z,91.40
2023-04-22T15:26:20.069Z,91.32
2023-04-22T15:29:06.593Z,90.15
2023-04-22T15:31:47.341Z,89.50
2023-04-22T15:34:34.607Z,90.27
2023-04-22T15:37:16.093Z,90.59
2023-04-22T15:40:02.626Z,91.54
2023-04-22T15:42:56.543Z,91.11
2023-04-22T15:45:43.577Z,90.65
2023-04-22T15:48:30.540Z,90.32
2023-04-22T15:51:11.658Z,90.61
2023-04-22T15:53:59.559Z,90.39
2023-04-22T15:56:39.923Z,90.44
2023-04-22T15:59:26.572Z,91.34
2023-04-22T16:02:08.771Z,91.29
2023-04-22T16:04:55.531Z,92.72
2023-04-22T16:07:36.013Z,92.93
2023-04-22T16:10:23.532Z,93.16
2023-04-22T16:13:03.919Z,93.89
2023-04-22T16:15:50.532Z,94.53
2023-04-22T16:18:37.530Z,93.98
2023-04-22T16:21:17.610Z,94.77
2023-04-22T16:24:05.540Z,95.39
2023-04-22T16:26:52.540Z,95.92
2023-04-22T16:29:39.679Z,95.41
2023-04-22T16:32:19.855Z,95.55
2023-04-22T16:35:06.464Z,96.04
2023-04-22T16:37:46.677Z,96.59
2023-04-22T16:40:33.534Z,97.91
2023-04-22T16:43:13.601Z,98.21
2023-04-22T16:46:00.513Z,97.98
2023-04-22T16:48:40.673Z,99.18
2023-04-22T16:51:27.448Z,99.72
2023-04-22T16:54:07.952Z,100.00
2023-04-22T16:56:54.488Z,100.00
2023-04-22T16:59:34.610Z,100.00
2023-04-22T17:02:21.651Z,100.00
2023-04-22T17:05:02.634Z,100.00
2023-04-22T17:07:49.438Z,100.00
2023-04-22T17:10:29.676Z,100.00
2023-04-22T17:13:16.402Z,100.00
2023-04-22T17:15:56.595Z,100.00
2023-04-22T17:18:44.455Z,100.00
2023-04-22T17:21:31.447Z,100.00
2023-04-22T17:24:19.492Z,100.00
2023-04-22T17:27:01.716Z,100.00
2023-04-22T17:29:48.429Z,100.00
2023-04-22T17:32:28.648Z,100.00
2023-04-22T17:35:16.415Z,100.00
2023-04-22T17:37:57.911Z,100.00
2023-04-22T17:40:45.429Z,100.00
2023-04-22T17:43:26.194Z,100.00
2023-04-22T17:46:13.461Z,100.00
2023-04-22T17:48:53.488Z,100.00
2023-04-22T17:51:40.411Z,100.00
2023-04-22T17:54:27.451Z,100.00
2023-04-22T17:57:07.780Z,100.00
2023-04-22T17:59:54.402Z,100.00
2023-04-22T18:02:34.983Z,100.00
2023-04-22T18:05:21.411Z,100.00
2023-04-22T18:08:02.952Z,100.00
2023-04-22T18:10:49.404Z,100.00
2023-04-22T18:13:29.703Z,100.00
2023-04-22T18:16:16.464Z,100.00
2023-04-22T18:18:59.471Z,100.00
2023-04-22T18:21:59.642Z,100.00
2023-04-22T18:24:42.791Z,100.00
2023-04-22T18:27:29.443Z,100.00
2023-04-22T18:30:10.089Z,100.00
2023-04-22T18:32:58.570Z,100.00
2023-04-22T18:35:38.881Z,100.00
2023-04-22T18:38:25.345Z,100.00
2023-04-22T18:41:13.640Z,100.00
2023-04-22T18:43:55.296Z,100.00
2023-04-22T18:46:42.339Z,100.00
2023-04-22T18:49:22.449Z,100.00
2023-04-22T18:52:09.298Z,100.00
2023-04-22T18:54:49.957Z,100.00
2023-04-22T18:57:36.307Z,100.00
2023-04-22T19:00:17.931Z,100.00
2023-04-22T19:03:04.458Z,100.00
2023-04-22T19:05:44.552Z,100.00
2023-04-22T19:08:32.325Z,100.00
2023-04-22T19:11:12.486Z,100.00
2023-04-22T19:13:59.326Z,100.00
2023-04-22T19:16:46.277Z,100.00
2023-04-22T19:19:33.303Z,100.00
2023-04-22T19:22:20.275Z,100.00
2023-04-22T19:25:07.289Z,100.00
2023-04-22T19:27:47.487Z,100.00
2023-04-22T19:41:27.613Z,100.00
2023-04-22T19:44:14.588Z,100.00
2023-04-22T19:46:54.688Z,100.00
2023-04-22T19:49:41.988Z,100.00
2023-04-22T19:52:21.775Z,100.00
2023-04-22T19:55:16.569Z,100.00
2023-04-22T19:57:58.054Z,100.00
2023-04-22T20:00:39.575Z,99.54
2023-04-22T20:03:20.457Z,99.56
2023-04-22T20:06:08.544Z,100.00
2023-04-22T20:08:52.203Z,99.29
2023-04-22T20:11:38.580Z,100.00
2023-04-22T20:14:20.023Z,98.45
2023-04-22T20:17:06.608Z,99.15
2023-04-22T20:19:47.073Z,98.13
2023-04-22T20:22:37.536Z,98.28
2023-04-22T20:25:18.090Z,97.36
2023-04-22T20:28:05.503Z,97.94
2023-04-22T20:30:53.657Z,99.46
2023-04-22T20:33:33.634Z,98.83
2023-04-22T20:36:23.494Z,99.95
2023-04-22T20:39:12.498Z,98.96
2023-04-22T20:41:56.295Z,99.73
2023-04-22T20:44:43.510Z,99.58
2023-04-22T20:47:23.972Z,98.92
2023-04-22T20:50:10.528Z,100.00
2023-04-22T20:52:58.484Z,100.00
2023-04-22T20:55:38.727Z,100.00
2023-04-22T20:58:25.479Z,100.00
2023-04-22T21:01:05.834Z,100.00
2023-04-22T21:03:58.644Z,100.00
2023-04-22T21:06:46.501Z,100.00
2023-04-22T21:09:33.723Z,100.00
2023-04-22T21:12:14.476Z,100.00
2023-04-22T21:15:01.490Z,100.00
2023-04-22T21:17:44.658Z,99.04
2023-04-22T21:20:33.453Z,99.38
2023-04-22T21:23:14.604Z,98.42
2023-04-22T21:26:02.498Z,98.27
2023-04-22T21:28:51.446Z,97.65
2023-04-22T21:31:38.546Z,97.08
2023-04-22T21:34:18.589Z,96.99
2023-04-22T21:37:05.415Z,95.74
2023-04-22T21:39:53.443Z,94.05
2023-04-22T21:42:40.445Z,93.66
2023-04-22T21:45:20.524Z,92.21
2023-04-22T21:48:07.412Z,92.74
2023-04-22T21:50:54.481Z,92.18
2023-04-22T21:53:41.446Z,91.93
2023-04-22T21:56:28.411Z,92.92
2023-04-22T21:59:08.791Z,92.27
2023-04-22T22:01:55.526Z,91.26
2023-04-22T22:04:36.000Z,91.64
2023-04-22T22:07:24.448Z,90.86
2023-04-22T22:10:16.448Z,90.43
2023-04-22T22:13:04.441Z,91.48
2023-04-22T22:15:44.877Z,90.98
2023-04-22T22:18:31.408Z,91.57
2023-04-22T22:21:18.389Z,92.32
2023-04-22T22:24:05.397Z,91.52
2023-04-22T22:26:52.480Z,92.79
2023-04-22T22:29:32.401Z,92.79
2023-04-22T22:32:13.125Z,91.25
2023-04-22T22:35:00.354Z,92.55
2023-04-22T22:37:41.198Z,93.71
2023-04-22T22:40:28.352Z,92.71
2023-04-22T22:43:15.396Z,93.89
2023-04-22T22:46:02.355Z,94.58
2023-04-22T22:48:49.336Z,94.51
2023-04-22T22:51:29.983Z,95.37
2023-04-22T22:54:16.399Z,95.29
2023-04-22T22:56:59.279Z,94.37
2023-04-22T22:59:47.329Z,95.87
2023-04-22T23:02:34.773Z,95.71
2023-04-22T23:05:21.833Z,95.07
2023-04-22T23:08:01.418Z,95.77
2023-04-22T23:10:48.278Z,95.84
2023-04-22T23:13:28.452Z,95.46
2023-04-22T23:16:15.360Z,96.02
2023-04-22T23:18:56.621Z,95.72
2023-04-22T23:21:45.338Z,96.73
2023-04-22T23:24:32.295Z,98.26
2023-04-22T23:27:13.625Z,98.75
2023-04-22T23:30:00.300Z,99.46
2023-04-22T23:32:49.383Z,100.00
2023-04-22T23:35:29.526Z,99.75
2023-04-22T23:38:18.329Z,100.00
2023-04-22T23:40:58.411Z,100.00
2023-04-22T23:43:45.208Z,99.66
2023-04-22T23:46:25.421Z,100.00
2023-04-22T23:49:12.246Z,100.00
2023-04-22T23:51:52.362Z,99.86
2023-04-22T23:54:39.302Z,100.00
2023-04-22T23:57:19.378Z,100.00
